createdAt,value
2019-04-25T00:00:21.593Z,13.123474
2019-04-25T00:01:21.537Z,13.143616
2019-04-25T00:02:32.503Z,13.173828
2019-04-25T00:04:21.839Z,13.204041
2019-04-25T00:05:21.273Z,13.224182
2019-04-25T00:08:21.482Z,13.254395
2019-04-25T00:11:31.806Z,13.294678
2019-04-25T00:12:22.297Z,13.294678
2019-04-25T00:16:11.596Z,13.224182
2019-04-25T00:17:22.070Z,13.183899
2019-04-25T00:18:21.958Z,13.183899
2019-04-25T00:20:31.910Z,13.153687
2019-04-25T00:23:31.952Z,13.093262
2019-04-25T00:26:31.852Z,13.143616
2019-04-25T00:29:31.958Z,13.113403
2019-04-25T00:32:31.900Z,13.173828
2019-04-25T00:36:31.979Z,13.113403
2019-04-25T00:39:32.092Z,13.123474
2019-04-25T00:42:20.972Z,13.093262
2019-04-25T00:45:31.813Z,13.113403
2019-04-25T00:46:32.268Z,13.093262
2019-04-25T00:49:32.185Z,13.063049
2019-04-25T00:50:32.019Z,13.042908
2019-04-25T00:52:31.702Z,13.032837
2019-04-25T00:53:32.421Z,13.042908
2019-04-25T00:55:31.747Z,13.022766
2019-04-25T00:56:32.172Z,12.992554
2019-04-25T00:57:32.024Z,12.952271
2019-04-25T00:58:31.662Z,12.932129
2019-04-25T00:59:32.135Z,12.922058
2019-04-25T01:02:31.819Z,12.891846
2019-04-25T01:03:32.050Z,12.881775
2019-04-25T01:05:31.751Z,12.851562
2019-04-25T01:06:32.022Z,12.851562
2019-04-25T01:09:32.291Z,12.922058
2019-04-25T01:10:31.631Z,12.922058
2019-04-25T01:13:42.292Z,12.952271
2019-04-25T01:16:41.659Z,12.932129
2019-04-25T01:17:41.415Z,12.932129
2019-04-25T01:18:43.540Z,12.922058
2019-04-25T01:23:43.119Z,12.962341
2019-04-25T01:26:30.899Z,12.962341
2019-04-25T01:29:41.820Z,12.881775
2019-04-25T01:33:43.186Z,12.841492
2019-04-25T01:35:33.257Z,12.811279
2019-04-25T01:36:33.209Z,12.791138
2019-04-25T01:38:31.521Z,12.750854
2019-04-25T01:39:31.847Z,12.7005
2019-04-25T01:42:33.650Z,12.7005
2019-04-25T01:47:33.520Z,12.660217
2019-04-25T01:49:31.866Z,12.670288
2019-04-25T01:52:33.414Z,12.660217
2019-04-25T01:53:31.380Z,12.660217
2019-04-25T01:55:51.586Z,12.619934
2019-04-25T01:56:31.389Z,12.619934
2019-04-25T01:58:43.745Z,12.599792
2019-04-25T02:00:43.083Z,12.630005
2019-04-25T02:02:43.364Z,12.630005
2019-04-25T02:05:41.897Z,12.630005
2019-04-25T02:08:41.836Z,12.539368
2019-04-25T02:11:42.005Z,12.519226
2019-04-25T02:13:41.809Z,12.43866
2019-04-25T02:16:43.746Z,12.287598
2019-04-25T02:18:43.390Z,12.18689
2019-04-25T02:21:43.064Z,12.156677
2019-04-25T02:22:31.409Z,12.146606
2019-04-25T02:24:43.287Z,12.116394
2019-04-25T02:26:41.711Z,12.106323
2019-04-25T02:27:42.074Z,12.076111
2019-04-25T02:29:43.222Z,12.086182
2019-04-25T02:32:44.166Z,12.045898
2019-04-25T02:34:45.145Z,12.005615
2019-04-25T02:37:31.046Z,11.93512
2019-04-25T02:39:30.924Z,11.894836
2019-04-25T02:42:43.721Z,11.874695
2019-04-25T02:45:44.056Z,11.854553
2019-04-25T02:47:43.779Z,11.894836
2019-04-25T02:50:43.920Z,11.93512
2019-04-25T02:53:31.165Z,11.904907
2019-04-25T02:54:31.456Z,11.894836
2019-04-25T02:55:36.764Z,11.925049
2019-04-25T03:00:21.027Z,11.894836
2019-04-25T03:01:23.226Z,11.904907
2019-04-25T03:02:21.711Z,11.864624
2019-04-25T03:05:21.941Z,11.703491
2019-04-25T03:07:21.848Z,11.653137
2019-04-25T03:10:26.637Z,11.723633
2019-04-25T03:12:30.321Z,11.673279
2019-04-25T03:17:24.322Z,11.44165
2019-04-25T03:18:12.898Z,11.391296
2019-04-25T03:20:24.142Z,11.340942
2019-04-25T03:25:24.506Z,11.361084
2019-04-25T03:28:23.565Z,11.361084
2019-04-25T03:30:21.821Z,11.351013
2019-04-25T03:32:13.658Z,11.290588
2019-04-25T03:33:22.025Z,11.270447
2019-04-25T03:35:23.269Z,11.18988
2019-04-25T03:36:21.485Z,11.169739
2019-04-25T03:37:23.338Z,11.159668
2019-04-25T03:38:21.350Z,11.159668
2019-04-25T03:40:31.926Z,11.099243
2019-04-25T03:42:32.015Z,11.089172
2019-04-25T03:47:33.207Z,10.978394
2019-04-25T03:48:31.387Z,10.917969
2019-04-25T03:49:31.809Z,10.857544
2019-04-25T03:53:31.472Z,10.585632
2019-04-25T03:54:33.020Z,10.474854
2019-04-25T03:55:31.333Z,10.43457
2019-04-25T03:56:30.899Z,10.323792
2019-04-25T03:57:31.314Z,10.243225
2019-04-25T03:59:43.550Z,10.142517
2019-04-25T04:00:31.340Z,10.031738
2019-04-25T04:02:41.994Z,9.830322
2019-04-25T04:04:43.484Z,9.729614
2019-04-25T04:07:43.352Z,9.850464
2019-04-25T04:08:42.089Z,9.910889
2019-04-25T04:10:43.243Z,9.880676
2019-04-25T04:11:31.522Z,9.850464
2019-04-25T04:12:31.836Z,9.820251
2019-04-25T04:14:31.875Z,9.779968
2019-04-25T04:16:31.931Z,9.699402
2019-04-25T04:19:31.912Z,9.608765
2019-04-25T04:21:33.240Z,9.578552
2019-04-25T04:22:31.349Z,9.608765
2019-04-25T04:23:33.194Z,9.638977
2019-04-25T04:24:31.415Z,9.638977
2019-04-25T04:25:31.762Z,9.598694
2019-04-25T04:26:31.031Z,9.578552
2019-04-25T04:27:31.412Z,9.598694
2019-04-25T04:28:31.706Z,9.608765
2019-04-25T04:29:33.131Z,9.608765
2019-04-25T04:30:31.458Z,9.638977
2019-04-25T04:31:33.382Z,9.638977
2019-04-25T04:32:31.416Z,9.638977
2019-04-25T04:34:31.208Z,9.638977
2019-04-25T04:35:33.390Z,9.638977
2019-04-25T04:36:31.906Z,9.659119
2019-04-25T04:42:33.565Z,9.779968
2019-04-25T04:44:31.851Z,9.890747
2019-04-25T04:48:31.852Z,10.061951
2019-04-25T04:51:33.543Z,10.223083
2019-04-25T04:53:33.863Z,10.213013
2019-04-25T04:56:34.037Z,10.213013
2019-04-25T05:02:33.151Z,10.343933
2019-04-25T05:03:31.942Z,10.404358
2019-04-25T05:05:31.956Z,10.444641
2019-04-25T05:07:31.699Z,10.444641
2019-04-25T05:09:33.089Z,10.525208
2019-04-25T05:11:31.592Z,10.595703
2019-04-25T05:12:30.948Z,10.646057
2019-04-25T05:16:43.052Z,10.726624
2019-04-25T05:17:31.074Z,10.736694
2019-04-25T05:20:42.047Z,10.827332
2019-04-25T05:22:41.936Z,10.907898
2019-04-25T05:24:30.926Z,10.93811
2019-04-25T05:25:31.255Z,10.958252
2019-04-25T05:27:57.417Z,11.008606
2019-04-25T05:29:41.801Z,11.089172
2019-04-25T05:31:41.573Z,11.18988
2019-04-25T05:32:40.969Z,11.199951
2019-04-25T05:34:53.117Z,11.290588
2019-04-25T05:35:53.518Z,11.320801
2019-04-25T05:37:53.209Z,11.391296
2019-04-25T05:39:53.435Z,11.44165
2019-04-25T05:42:52.115Z,11.522217
2019-04-25T05:43:51.781Z,11.542358
2019-04-25T05:44:51.103Z,11.572571
2019-04-25T05:47:01.819Z,11.643066
2019-04-25T05:48:51.575Z,11.673279
2019-04-25T05:49:51.983Z,11.673279
2019-04-25T05:57:51.649Z,11.723633
2019-04-25T05:58:53.201Z,11.773987
2019-04-25T06:00:52.058Z,11.824341
2019-04-25T06:02:53.301Z,11.894836
2019-04-25T06:04:40.971Z,11.894836
2019-04-25T06:06:53.032Z,11.93512
2019-04-25T06:10:01.853Z,11.985474
2019-04-25T06:12:03.041Z,12.015686
2019-04-25T06:14:02.952Z,12.086182
2019-04-25T06:16:03.479Z,12.146606
2019-04-25T06:18:01.642Z,12.18689
2019-04-25T06:20:51.218Z,12.267456
2019-04-25T06:21:53.378Z,12.327881
2019-04-25T06:22:51.358Z,12.337952
2019-04-25T06:23:51.992Z,12.368164
2019-04-25T06:25:53.626Z,12.408447
2019-04-25T06:27:57.153Z,12.458801
2019-04-25T06:29:41.068Z,12.478943
2019-04-25T06:30:41.531Z,12.509155
2019-04-25T06:32:41.415Z,12.539368
2019-04-25T06:35:41.992Z,12.589722
2019-04-25T06:36:41.290Z,12.56958
2019-04-25T06:37:43.591Z,12.599792
2019-04-25T06:39:42.039Z,12.660217
2019-04-25T06:43:41.932Z,12.750854
2019-04-25T06:45:41.788Z,12.750854
2019-04-25T06:47:41.722Z,12.811279
2019-04-25T06:48:43.292Z,12.841492
2019-04-25T06:49:43.119Z,12.851562
2019-04-25T06:50:41.137Z,12.891846
2019-04-25T06:52:53.402Z,12.962341
2019-04-25T06:53:51.309Z,13.022766
2019-04-25T06:54:53.142Z,13.093262
2019-04-25T06:56:51.540Z,13.153687
2019-04-25T06:57:51.107Z,13.204041
2019-04-25T06:58:51.496Z,13.214111
2019-04-25T06:59:53.213Z,13.244324
2019-04-25T07:00:45.585Z,13.274536
2019-04-25T07:01:41.759Z,13.304749
2019-04-25T07:03:41.768Z,13.365173
2019-04-25T07:04:43.429Z,13.425598
2019-04-25T07:06:43.503Z,13.486023
2019-04-25T07:07:41.433Z,13.516235
2019-04-25T07:08:42.972Z,13.556519
2019-04-25T07:09:41.274Z,13.606873
2019-04-25T07:10:41.756Z,13.667297
2019-04-25T07:13:43.624Z,13.788147
2019-04-25T07:15:30.922Z,13.888855
2019-04-25T07:17:41.713Z,13.979492
2019-04-25T07:18:43.554Z,14.019775
2019-04-25T07:19:41.643Z,14.060059
2019-04-25T07:20:43.177Z,14.100342
2019-04-25T07:21:41.422Z,14.120483
2019-04-25T07:25:53.704Z,14.20105
2019-04-25T07:27:53.316Z,14.241333
2019-04-25T07:29:51.576Z,14.241333
2019-04-25T07:30:54.351Z,14.251404
2019-04-25T07:32:51.901Z,14.311829
2019-04-25T07:34:51.699Z,14.352112
2019-04-25T07:35:55.001Z,14.382324
2019-04-25T07:37:51.928Z,14.422607
2019-04-25T07:42:53.400Z,14.523315
2019-04-25T07:45:41.316Z,14.543457
2019-04-25T07:46:43.114Z,14.563599
2019-04-25T07:48:43.535Z,14.624023
2019-04-25T07:50:32.545Z,14.694519
2019-04-25T07:53:21.006Z,14.724731
2019-04-25T07:55:21.006Z,14.795227
2019-04-25T07:56:21.482Z,14.825439
2019-04-25T07:59:20.949Z,14.795227
2019-04-25T08:01:33.450Z,14.775085
2019-04-25T08:02:33.762Z,14.714661
2019-04-25T08:04:20.940Z,14.674377
2019-04-25T08:06:33.315Z,14.684448
2019-04-25T08:08:33.639Z,14.724731
2019-04-25T08:11:32.308Z,14.825439
2019-04-25T08:13:32.400Z,14.83551
2019-04-25T08:15:20.896Z,14.906006
2019-04-25T08:16:34.152Z,14.946289
2019-04-25T08:18:32.656Z,15.077209
2019-04-25T08:20:32.764Z,15.167847
2019-04-25T08:23:33.696Z,15.258484
2019-04-25T08:25:33.376Z,15.20813
2019-04-25T08:26:21.411Z,15.198059
2019-04-25T08:27:23.150Z,15.198059
2019-04-25T08:29:23.469Z,15.20813
2019-04-25T08:32:22.116Z,15.389404
2019-04-25T08:34:22.103Z,15.409546
2019-04-25T08:36:23.352Z,15.419617
2019-04-25T08:38:23.736Z,15.419617
2019-04-25T08:39:22.036Z,15.429688
2019-04-25T08:41:23.699Z,15.429688
2019-04-25T08:44:22.021Z,15.520325
2019-04-25T08:46:23.435Z,15.560608
2019-04-25T08:49:21.907Z,15.631104
2019-04-25T08:52:11.045Z,15.751953
2019-04-25T08:55:21.973Z,15.943298
2019-04-25T08:57:21.898Z,16.114502
2019-04-25T09:00:11.308Z,16.33606
2019-04-25T09:02:23.477Z,16.34613
2019-04-25T09:05:22.053Z,16.305847
2019-04-25T09:07:23.529Z,16.265564
2019-04-25T09:10:23.555Z,16.295776
2019-04-25T09:12:21.957Z,16.366272
2019-04-25T09:14:10.931Z,16.436768
2019-04-25T09:17:21.778Z,16.517334
2019-04-25T09:19:21.900Z,16.517334
2019-04-25T09:21:11.070Z,16.547546
2019-04-25T09:23:23.461Z,16.628113
2019-04-25T09:26:21.853Z,16.728821
2019-04-25T09:28:21.659Z,16.779175
2019-04-25T09:29:23.453Z,16.829529
2019-04-25T09:31:23.541Z,16.930237
2019-04-25T09:33:23.120Z,17.000732
2019-04-25T09:35:21.560Z,17.061157
2019-04-25T09:36:21.920Z,17.061157
2019-04-25T09:41:23.502Z,16.980591
2019-04-25T09:43:23.394Z,16.930237
2019-04-25T09:45:24.512Z,16.920166
2019-04-25T09:46:22.050Z,16.889954
2019-04-25T09:48:23.123Z,16.900024
2019-04-25T09:50:21.591Z,16.990662
2019-04-25T09:51:23.389Z,17.061157
2019-04-25T09:53:23.844Z,17.111511
2019-04-25T09:55:21.463Z,17.061157
2019-04-25T09:59:33.130Z,17.061157
2019-04-25T10:00:23.123Z,17.071228
2019-04-25T10:01:22.011Z,17.061157
2019-04-25T10:03:23.378Z,17.000732
2019-04-25T10:04:22.940Z,17.030945
2019-04-25T10:05:21.906Z,17.030945
2019-04-25T10:07:21.880Z,17.030945
2019-04-25T10:08:21.277Z,17.041016
2019-04-25T10:10:31.868Z,17.041016
2019-04-25T10:11:31.167Z,17.041016
2019-04-25T10:12:31.487Z,17.041016
2019-04-25T10:16:31.203Z,17.111511
2019-04-25T10:17:31.475Z,17.131653
2019-04-25T10:18:33.429Z,17.131653
2019-04-25T10:20:33.186Z,17.182007
2019-04-25T10:21:32.055Z,17.202148
2019-04-25T10:22:31.342Z,17.232361
2019-04-25T10:23:31.618Z,17.232361
2019-04-25T10:24:32.073Z,17.232361
2019-04-25T10:26:33.489Z,17.22229
2019-04-25T10:29:39.975Z,17.252502
2019-04-25T10:31:31.683Z,17.252502
2019-04-25T10:32:33.514Z,17.282715
2019-04-25T10:34:33.319Z,17.463989
2019-04-25T10:39:21.012Z,18.017883
2019-04-25T10:46:31.912Z,18.118591
2019-04-25T10:48:31.896Z,18.189087
2019-04-25T10:49:31.356Z,18.249512
2019-04-25T10:51:42.790Z,18.360291
2019-04-25T10:52:41.593Z,18.400574
2019-04-25T10:53:41.957Z,18.440857
2019-04-25T10:55:42.835Z,18.501282
2019-04-25T10:56:41.704Z,18.541565
2019-04-25T10:58:51.780Z,18.551636
2019-04-25T11:00:42.185Z,18.491211
2019-04-25T11:02:42.244Z,18.390503
2019-04-25T11:05:42.777Z,18.420715
2019-04-25T11:06:31.445Z,18.440857
2019-04-25T11:07:33.741Z,18.430786
2019-04-25T11:09:31.862Z,18.460999
2019-04-25T11:11:32.031Z,18.501282
2019-04-25T11:12:31.545Z,18.541565
2019-04-25T11:13:33.751Z,18.622131
2019-04-25T11:15:31.871Z,18.742981
2019-04-25T11:17:33.707Z,18.833618
2019-04-25T11:20:20.941Z,18.843689
2019-04-25T11:22:21.246Z,18.954468
2019-04-25T11:31:20.996Z,18.501282
2019-04-25T11:32:21.663Z,18.591919
2019-04-25T11:34:22.807Z,18.702698
2019-04-25T11:35:21.391Z,18.742981
2019-04-25T11:36:20.929Z,18.73291
2019-04-25T11:38:31.915Z,18.702698
2019-04-25T11:39:31.436Z,18.742981
2019-04-25T11:40:32.089Z,18.763123
2019-04-25T11:43:21.662Z,18.904114
2019-04-25T11:45:10.923Z,18.944397
2019-04-25T11:48:21.648Z,18.823547
2019-04-25T11:49:23.713Z,18.793335
2019-04-25T11:51:21.836Z,18.773193
2019-04-25T11:55:21.632Z,18.974609
2019-04-25T11:56:20.973Z,19.014893
2019-04-25T11:58:31.784Z,19.075317
2019-04-25T12:00:22.046Z,19.196167
2019-04-25T12:05:32.082Z,19.538574
2019-04-25T12:07:32.015Z,19.780273
2019-04-25T12:08:21.283Z,19.870911
2019-04-25T12:09:21.863Z,19.941406
2019-04-25T12:13:11.240Z,20.132751
2019-04-25T12:16:21.743Z,20.273743
2019-04-25T12:17:21.154Z,20.303955
2019-04-25T12:19:32.971Z,20.233459
2019-04-25T12:22:23.713Z,20.253601
2019-04-25T12:27:21.974Z,20.424805
2019-04-25T12:28:23.347Z,20.434875
2019-04-25T12:29:21.971Z,20.465088
2019-04-25T12:31:21.802Z,20.485229
2019-04-25T12:32:11.407Z,20.465088
2019-04-25T12:35:21.724Z,20.61615
2019-04-25T12:40:22.075Z,20.706787
2019-04-25T12:42:21.898Z,20.737
2019-04-25T12:44:21.923Z,20.757141
2019-04-25T12:45:21.689Z,20.767212
2019-04-25T12:46:21.168Z,20.787354
2019-04-25T12:47:21.705Z,20.787354
2019-04-25T12:48:23.427Z,20.837708
2019-04-25T12:50:23.023Z,20.948486
2019-04-25T12:52:24.346Z,21.008911
2019-04-25T12:53:21.569Z,21.018982
2019-04-25T12:57:22.052Z,20.757141
2019-04-25T12:58:23.462Z,20.676575
2019-04-25T12:59:21.451Z,20.535583
2019-04-25T13:00:21.026Z,20.434875
2019-04-25T13:02:34.270Z,20.535583
2019-04-25T13:04:33.115Z,20.928345
2019-04-25T13:07:31.667Z,21.593018
2019-04-25T13:08:31.179Z,21.723938
2019-04-25T13:10:41.922Z,21.723938
2019-04-25T13:12:42.045Z,21.935425
2019-04-25T13:14:42.078Z,22.136841
2019-04-25T13:15:44.119Z,22.227478
2019-04-25T13:16:41.993Z,22.24762
2019-04-25T13:17:41.451Z,22.217407
2019-04-25T13:18:41.865Z,22.217407
2019-04-25T13:19:41.430Z,22.277832
2019-04-25T13:20:41.765Z,22.308044
2019-04-25T13:23:31.983Z,22.438965
2019-04-25T13:26:43.127Z,22.12677
2019-04-25T13:28:41.934Z,22.136841
2019-04-25T13:30:41.862Z,22.066345
2019-04-25T13:32:41.981Z,22.590027
2019-04-25T13:33:43.145Z,22.892151
2019-04-25T13:34:41.065Z,23.113708
2019-04-25T13:36:52.013Z,23.677673
2019-04-25T13:38:51.992Z,23.939514
2019-04-25T13:40:52.065Z,24.070435
2019-04-25T13:41:51.482Z,24.171143
2019-04-25T13:42:53.160Z,24.221497
2019-04-25T13:44:51.858Z,24.26178
2019-04-25T13:46:53.291Z,24.100647
2019-04-25T13:49:41.625Z,23.456116
2019-04-25T13:50:41.005Z,23.244629
2019-04-25T13:53:52.007Z,22.942505
2019-04-25T13:54:53.604Z,22.942505
2019-04-25T13:56:40.917Z,23.486328
2019-04-25T13:57:41.433Z,23.939514
2019-04-25T13:58:41.859Z,24.372559
2019-04-25T14:00:41.916Z,24.89624
2019-04-25T14:01:41.609Z,25.117798
2019-04-25T14:02:41.002Z,25.309143
2019-04-25T14:03:41.512Z,25.349426
2019-04-25T14:06:51.938Z,24.594116
2019-04-25T14:07:51.626Z,24.422913
2019-04-25T14:08:51.113Z,24.503479
2019-04-25T14:09:52.934Z,24.322205
2019-04-25T14:12:53.422Z,23.667603
2019-04-25T14:14:51.881Z,23.798523
2019-04-25T14:18:52.064Z,25.14801
2019-04-25T14:19:51.739Z,25.299072
2019-04-25T14:21:51.912Z,24.845886
2019-04-25T14:23:51.682Z,24.201355
2019-04-25T14:24:51.009Z,23.919373
2019-04-25T14:27:03.569Z,24.694824
2019-04-25T14:29:01.888Z,25.198364
2019-04-25T14:31:01.646Z,25.087585
2019-04-25T14:33:03.409Z,25.067444
2019-04-25T14:35:03.238Z,25.339355
2019-04-25T14:42:01.923Z,25.993958
2019-04-25T14:43:01.545Z,25.983887
2019-04-25T14:44:01.103Z,25.822754
2019-04-25T14:46:12.054Z,25.792542
2019-04-25T14:47:11.561Z,25.90332
2019-04-25T14:49:11.762Z,26.316223
2019-04-25T14:50:11.461Z,26.346436
2019-04-25T14:51:10.960Z,26.467285
2019-04-25T14:53:21.710Z,26.497498
2019-04-25T14:55:10.968Z,26.739197
2019-04-25T14:56:11.516Z,26.729126
2019-04-25T14:57:10.906Z,26.759338
2019-04-25T14:59:23.033Z,26.588135
2019-04-25T15:01:22.689Z,26.517639
2019-04-25T15:03:10.940Z,26.668701
2019-04-25T15:05:22.445Z,26.809692
2019-04-25T15:06:21.489Z,26.9104
2019-04-25T15:07:20.886Z,27.021179
2019-04-25T15:09:32.250Z,26.980896
2019-04-25T15:10:31.180Z,27.041321
2019-04-25T15:13:41.495Z,27.131958
2019-04-25T15:14:41.095Z,27.101746
2019-04-25T15:16:51.856Z,27.353516
2019-04-25T15:17:51.263Z,27.434082
2019-04-25T15:21:01.625Z,27.887268
2019-04-25T15:22:00.979Z,27.736206
2019-04-25T15:23:01.238Z,27.605286
2019-04-25T15:25:12.034Z,27.575073
2019-04-25T15:26:11.484Z,27.585144
2019-04-25T15:29:21.736Z,27.585144
2019-04-25T15:30:21.347Z,27.424011
2019-04-25T15:32:32.611Z,27.424011
2019-04-25T15:33:31.575Z,27.333374
2019-04-25T15:34:30.908Z,27.131958
2019-04-25T15:36:41.613Z,26.729126
2019-04-25T15:37:41.190Z,27.051392
2019-04-25T15:39:51.996Z,27.28302
2019-04-25T15:40:51.605Z,27.484436
2019-04-25T15:41:50.928Z,27.544861
2019-04-25T15:45:01.563Z,27.111816
2019-04-25T15:46:03.761Z,26.950684
2019-04-25T15:49:11.608Z,25.832825
2019-04-25T15:50:11.180Z,25.440063
2019-04-25T15:51:11.574Z,24.815674
2019-04-25T15:52:11.206Z,24.573975
2019-04-25T15:54:21.922Z,24.080505
2019-04-25T15:55:21.434Z,23.979797
2019-04-25T15:57:21.286Z,23.939514
2019-04-25T16:00:32.716Z,23.939514
2019-04-25T16:01:31.101Z,24.100647
2019-04-25T16:04:41.551Z,23.919373
2019-04-25T16:05:40.987Z,23.75824
2019-04-25T16:07:52.072Z,23.717957
2019-04-25T16:08:51.606Z,23.717957
2019-04-25T16:09:51.114Z,23.607178
2019-04-25T16:12:01.755Z,23.486328
2019-04-25T16:13:01.307Z,23.446045
2019-04-25T16:15:12.088Z,23.194275
2019-04-25T16:16:11.545Z,23.143921
2019-04-25T16:17:10.933Z,23.023071
2019-04-25T16:19:21.954Z,22.781372
2019-04-25T16:20:21.555Z,22.670593
2019-04-25T16:21:20.933Z,22.569885
2019-04-25T16:23:32.147Z,22.438965
2019-04-25T16:24:30.978Z,22.408752
2019-04-25T16:26:42.453Z,22.438965
2019-04-25T16:27:41.487Z,22.438965
2019-04-25T16:30:51.893Z,22.308044
2019-04-25T16:32:41.355Z,22.136841
2019-04-25T16:33:42.111Z,21.985779
2019-04-25T16:35:52.075Z,21.713867
2019-04-25T16:36:51.463Z,21.562805
2019-04-25T16:40:01.799Z,21.391602
2019-04-25T16:41:01.334Z,21.290894
2019-04-25T16:43:11.959Z,21.008911
2019-04-25T16:44:11.505Z,20.898132
2019-04-25T16:45:10.920Z,20.787354
2019-04-25T16:47:21.596Z,20.767212
2019-04-25T16:48:21.104Z,20.767212
2019-04-25T16:50:32.057Z,20.86792
2019-04-25T16:51:31.460Z,20.898132
2019-04-25T16:53:32.566Z,20.888062
2019-04-25T16:55:31.735Z,20.86792
2019-04-25T16:58:41.676Z,20.636292
2019-04-25T16:59:42.028Z,20.4953
2019-04-25T17:02:51.462Z,20.344238
2019-04-25T17:06:01.908Z,20.414734
2019-04-25T17:07:01.414Z,20.465088
2019-04-25T17:10:11.938Z,20.535583
2019-04-25T17:11:11.546Z,20.585938
2019-04-25T17:12:11.190Z,20.585938
2019-04-25T17:14:21.972Z,20.606079
2019-04-25T17:15:21.493Z,20.585938
2019-04-25T17:16:20.927Z,20.555725
2019-04-25T17:17:21.286Z,20.4953
2019-04-25T17:18:21.631Z,20.414734
2019-04-25T17:19:21.633Z,20.334167
2019-04-25T17:20:21.506Z,20.213318
2019-04-25T17:21:21.296Z,20.122681
2019-04-25T17:23:21.070Z,20.021973
2019-04-25T17:25:32.394Z,20.021973
2019-04-25T17:26:31.417Z,19.981689
2019-04-25T17:27:31.778Z,19.971619
2019-04-25T17:28:31.371Z,19.981689
2019-04-25T17:30:42.135Z,19.981689
2019-04-25T17:31:41.085Z,19.981689
2019-04-25T17:33:40.895Z,19.901123
2019-04-25T17:35:51.695Z,19.880981
2019-04-25T17:36:50.941Z,19.901123
2019-04-25T17:39:01.745Z,19.951477
2019-04-25T17:40:01.237Z,19.981689
2019-04-25T17:44:12.026Z,19.830627
2019-04-25T17:45:11.528Z,19.719849
2019-04-25T17:46:11.088Z,19.629211
2019-04-25T17:48:22.082Z,19.528503
2019-04-25T17:53:11.015Z,19.397583
2019-04-25T17:54:11.145Z,19.387512
2019-04-25T17:55:11.396Z,19.387512
2019-04-25T17:56:11.397Z,19.377441
2019-04-25T17:59:21.768Z,19.226379
2019-04-25T18:01:21.842Z,19.145813
2019-04-25T18:02:21.336Z,19.095459
2019-04-25T18:03:21.806Z,19.055176
2019-04-25T18:05:22.981Z,19.095459
2019-04-25T18:09:12.065Z,19.276733
2019-04-25T18:10:11.513Z,19.347229
2019-04-25T18:12:11.679Z,19.478149
2019-04-25T18:13:11.186Z,19.468079
2019-04-25T18:15:21.993Z,19.176025
2019-04-25T18:16:21.446Z,19.014893
2019-04-25T18:17:20.907Z,18.914185
2019-04-25T18:18:21.595Z,18.803406
2019-04-25T18:19:20.997Z,18.672485
2019-04-25T18:21:32.085Z,18.581848
2019-04-25T18:22:31.569Z,18.491211
2019-04-25T18:23:31.964Z,18.390503
2019-04-25T18:24:31.466Z,18.279724
2019-04-25T18:25:31.942Z,18.168945
2019-04-25T18:26:31.272Z,18.058167
2019-04-25T18:27:30.891Z,17.997742
2019-04-25T18:29:41.641Z,17.917175
2019-04-25T18:30:51.813Z,17.937317
2019-04-25T18:31:51.145Z,17.937317
2019-04-25T18:32:51.561Z,17.907104
2019-04-25T18:34:51.731Z,17.876892
2019-04-25T18:35:51.139Z,17.84668
2019-04-25T18:38:01.204Z,17.786255
2019-04-25T18:41:11.676Z,17.685547
2019-04-25T18:42:11.180Z,17.665405
2019-04-25T18:44:21.871Z,17.625122
2019-04-25T18:45:21.461Z,17.615051
2019-04-25T18:46:20.918Z,17.635193
2019-04-25T18:48:32.080Z,17.655334
2019-04-25T18:49:31.778Z,17.655334
2019-04-25T18:50:31.120Z,17.665405
2019-04-25T18:52:42.928Z,17.695618
2019-04-25T18:53:41.422Z,17.685547
2019-04-25T18:56:51.645Z,17.574768
2019-04-25T18:57:51.104Z,17.544556
2019-04-25T19:00:01.837Z,17.534485
2019-04-25T19:01:01.444Z,17.504272
2019-04-25T19:05:12.080Z,17.443848
2019-04-25T19:06:11.453Z,17.433777
2019-04-25T19:08:11.153Z,17.383423
2019-04-25T19:11:21.731Z,17.182007
2019-04-25T19:12:22.246Z,17.111511
2019-04-25T19:13:22.112Z,17.071228
2019-04-25T19:14:21.555Z,17.081299
2019-04-25T19:15:20.975Z,17.111511
2019-04-25T19:17:31.926Z,16.960449
2019-04-25T19:18:31.409Z,16.779175
2019-04-25T19:19:31.918Z,16.678467
2019-04-25T19:22:21.446Z,16.436768
2019-04-25T19:23:20.945Z,16.265564
2019-04-25T19:25:31.895Z,16.114502
2019-04-25T19:27:31.864Z,16.225281
2019-04-25T19:28:31.410Z,16.305847
2019-04-25T19:29:30.909Z,16.366272
2019-04-25T19:31:42.154Z,16.406555
2019-04-25T19:32:42.934Z,16.436768
2019-04-25T19:33:41.628Z,16.436768
2019-04-25T19:38:52.460Z,16.487122
2019-04-25T19:39:51.524Z,16.487122
2019-04-25T19:42:01.933Z,16.436768
2019-04-25T19:43:01.416Z,16.396484
2019-04-25T19:44:00.948Z,16.295776
2019-04-25T19:49:11.648Z,16.33606
2019-04-25T19:50:10.921Z,16.366272
2019-04-25T19:52:21.860Z,16.366272
2019-04-25T19:53:21.262Z,16.325989
2019-04-25T19:56:31.599Z,16.195068
2019-04-25T19:57:32.059Z,16.154785
2019-04-25T19:59:31.972Z,16.09436
2019-04-25T20:01:32.004Z,16.064148
2019-04-25T20:03:32.046Z,16.064148
2019-04-25T20:07:21.244Z,16.144714
2019-04-25T20:08:20.978Z,16.164856
2019-04-25T20:11:20.912Z,16.114502
2019-04-25T20:17:21.587Z,15.510254
2019-04-25T20:18:20.997Z,15.490112
2019-04-25T20:20:32.058Z,15.490112
2019-04-25T20:22:31.951Z,15.308838
2019-04-25T20:23:31.512Z,15.228271
2019-04-25T20:26:30.908Z,15.006714
2019-04-25T20:28:41.846Z,14.926147
2019-04-25T20:29:41.258Z,14.895935
2019-04-25T20:32:51.631Z,14.855652
2019-04-25T20:34:02.957Z,14.875793
2019-04-25T20:34:51.574Z,14.825439
2019-04-25T20:35:51.076Z,14.805298
2019-04-25T20:38:01.754Z,14.83551
2019-04-25T20:39:01.299Z,14.855652
2019-04-25T20:41:12.292Z,14.895935
2019-04-25T20:42:11.621Z,14.926147
2019-04-25T20:43:10.912Z,14.946289
2019-04-25T20:45:21.679Z,15.117493
2019-04-25T20:46:20.994Z,15.147705
2019-04-25T20:48:31.662Z,15.057068
2019-04-25T20:49:31.357Z,15.057068
2019-04-25T20:52:41.754Z,15.107422
2019-04-25T20:53:41.231Z,15.057068
2019-04-25T20:54:41.785Z,15.016785
2019-04-25T20:55:41.310Z,14.976501
2019-04-25T20:56:41.672Z,15.006714
2019-04-25T20:57:41.189Z,15.006714
2019-04-25T21:01:52.043Z,15.127563
2019-04-25T21:02:51.919Z,15.167847
2019-04-25T21:03:51.977Z,15.198059
2019-04-25T21:04:52.164Z,15.228271
2019-04-25T21:05:51.086Z,15.228271
2019-04-25T21:08:02.144Z,15.198059
2019-04-25T21:09:02.212Z,15.198059
2019-04-25T21:12:11.866Z,15.308838
2019-04-25T21:13:11.420Z,15.308838
2019-04-25T21:16:21.527Z,15.449829
2019-04-25T21:17:20.957Z,15.480042
2019-04-25T21:19:31.807Z,15.490112
2019-04-25T21:20:31.137Z,15.490112
2019-04-25T21:22:41.922Z,15.429688
2019-04-25T21:24:41.686Z,15.379333
2019-04-25T21:26:41.974Z,15.359192
2019-04-25T21:27:41.535Z,15.359192
2019-04-25T21:28:41.047Z,15.359192
2019-04-25T21:29:41.350Z,15.349121
2019-04-25T21:31:52.531Z,15.359192